Time;durP1;ratioP1;P1;durP2;ratioP2;P2;SDS_P1;SDS_P2;PMS_P1;PMS_P2;Temp;Humidity;BMP_temperature;BMP_pressure;BME280_temperature;BME280_humidity;BME280_pressure;Samples;Min_cycle;Max_cycle;Signal;HPM_P1;HPM_P2
2023/03/01 00:01:30;;;;;;;20.42;9.75;;;1.10;99.90;;;;;;5018568;28;20053;-68
2023/03/01 00:03:59;;;;;;;19.02;10.05;;;1.00;99.90;;;;;;5017451;28;20489;-68
2023/03/01 00:06:26;;;;;;;23.15;10.13;;;1.00;99.90;;;;;;5013046;28;20045;-68
2023/03/01 00:08:52;;;;;;;22.20;9.43;;;1.00;99.90;;;;;;5006501;28;20042;-69
2023/03/01 00:11:23;;;;;;;18.27;8.88;;;0.90;99.90;;;;;;4991597;28;20492;-68
2023/03/01 00:13:52;;;;;;;19.10;9.40;;;0.90;99.90;;;;;;4977561;28;20310;-68
2023/03/01 00:16:27;;;;;;;22.55;10.48;;;0.90;99.90;;;;;;5012556;28;20033;-68
2023/03/01 00:18:54;;;;;;;21.13;9.77;;;0.90;99.90;;;;;;4995707;28;20052;-68
2023/03/01 00:21:21;;;;;;;20.08;10.15;;;0.90;99.90;;;;;;4992430;28;20108;-68
2023/03/01 00:23:48;;;;;;;20.50;9.85;;;0.80;99.90;;;;;;4977871;28;20120;-69
2023/03/01 00:26:15;;;;;;;18.73;8.85;;;0.80;99.90;;;;;;5012370;28;20034;-68
2023/03/01 00:28:41;;;;;;;18.55;9.30;;;0.80;99.90;;;;;;5015206;28;20113;-68
2023/03/01 00:31:12;;;;;;;24.67;10.90;;;0.80;99.90;;;;;;4992729;28;20033;-68
2023/03/01 00:33:39;;;;;;;22.42;10.32;;;0.70;99.90;;;;;;4984539;28;20365;-68
2023/03/01 00:36:05;;;;;;;21.15;9.57;;;0.80;99.90;;;;;;4991200;28;20237;-68
2023/03/01 00:38:35;;;;;;;22.13;10.68;;;0.70;99.90;;;;;;5014238;28;20042;-68
2023/03/01 00:41:06;;;;;;;20.98;9.73;;;0.70;99.90;;;;;;4987274;28;20053;-68
2023/03/01 00:43:36;;;;;;;21.17;10.52;;;0.70;99.90;;;;;;4992551;28;20042;-69
2023/03/01 00:46:06;;;;;;;20.90;10.35;;;0.60;99.90;;;;;;4984933;28;20054;-68
2023/03/01 00:48:32;;;;;;;22.80;9.80;;;0.60;99.90;;;;;;4991223;28;20074;-69
2023/03/01 00:51:08;;;;;;;20.33;11.40;;;0.60;99.90;;;;;;4986443;28;20069;-68
2023/03/01 00:53:34;;;;;;;21.02;9.80;;;0.60;99.90;;;;;;4990603;28;20511;-68
2023/03/01 00:56:00;;;;;;;22.52;10.60;;;0.60;99.90;;;;;;4991490;28;20466;-68
2023/03/01 00:58:26;;;;;;;21.67;10.70;;;0.50;99.90;;;;;;5002657;28;20115;-68
2023/03/01 01:00:54;;;;;;;19.77;10.70;;;0.50;99.90;;;;;;4995156;28;20513;-69
2023/03/01 01:03:21;;;;;;;17.85;9.20;;;0.50;99.90;;;;;;5011992;28;20115;-68
2023/03/01 01:05:47;;;;;;;19.10;9.90;;;0.50;99.90;;;;;;4988084;28;20528;-69
2023/03/01 01:08:12;;;;;;;18.37;9.10;;;0.50;99.90;;;;;;4977379;28;20069;-68
2023/03/01 01:10:38;;;;;;;19.37;9.40;;;0.50;99.90;;;;;;5006898;28;20076;-68
2023/03/01 01:13:04;;;;;;;20.57;10.03;;;0.50;99.90;;;;;;5009215;28;20141;-68
2023/03/01 01:15:33;;;;;;;18.03;9.50;;;0.50;99.90;;;;;;4990604;28;20156;-69
2023/03/01 01:17:58;;;;;;;24.00;9.55;;;0.50;99.90;;;;;;4987993;28;20120;-68
2023/03/01 01:20:24;;;;;;;22.03;9.93;;;0.50;99.90;;;;;;5010448;28;20133;-69
2023/03/01 01:22:51;;;;;;;19.47;8.67;;;0.60;99.90;;;;;;4995519;28;20059;-69
2023/03/01 01:25:16;;;;;;;;;;;0.50;99.90;;;;;;4995475;28;20501;-69
2023/03/01 01:27:42;;;;;;;19.38;8.77;;;0.50;99.90;;;;;;5000456;28;20121;-69
2023/03/01 01:30:08;;;;;;;15.43;8.77;;;0.50;99.90;;;;;;5000504;28;20030;-68
2023/03/01 01:32:33;;;;;;;18.55;8.70;;;0.50;99.90;;;;;;5006500;28;20124;-67
2023/03/01 01:34:59;;;;;;;16.73;8.93;;;0.50;99.90;;;;;;5008093;28;20209;-67
2023/03/01 01:37:30;;;;;;;15.63;8.40;;;0.40;99.90;;;;;;5006042;28;20453;-67
2023/03/01 01:40:00;;;;;;;17.70;9.52;;;0.40;99.90;;;;;;4992888;28;20396;-66
2023/03/01 01:42:26;;;;;;;22.48;8.77;;;0.40;99.90;;;;;;4999729;28;20370;-67
2023/03/01 01:45:30;;;;;;;17.48;9.77;;;0.40;99.90;;;;;;5008248;28;20081;-67
2023/03/01 01:48:00;;;;;;;15.48;8.50;;;0.30;99.90;;;;;;5005693;28;20195;-67
2023/03/01 01:50:26;;;;;;;18.20;9.15;;;0.30;99.90;;;;;;5007365;28;20315;-67
2023/03/01 01:52:54;;;;;;;16.52;8.63;;;0.30;99.90;;;;;;4994696;28;20041;-67
2023/03/01 01:55:25;;;;;;;19.27;9.18;;;0.20;99.90;;;;;;5006304;28;20046;-67
2023/03/01 01:57:56;;;;;;;19.45;9.20;;;0.20;99.90;;;;;;4989253;28;20061;-66
2023/03/01 02:00:28;;;;;;;19.67;8.93;;;0.20;99.90;;;;;;5006877;28;20388;-66
2023/03/01 02:03:00;;;;;;;17.85;9.07;;;0.20;99.90;;;;;;4983506;28;20046;-67
2023/03/01 02:05:37;;;;;;;19.70;9.75;;;0.30;99.90;;;;;;4998056;28;20446;-67
2023/03/01 02:08:03;;;;;;;25.88;9.48;;;0.20;99.90;;;;;;4986825;28;20235;-66
2023/03/01 02:10:33;;;;;;;16.40;8.67;;;0.20;99.90;;;;;;5009133;28;20105;-67
2023/03/01 02:13:03;;;;;;;22.33;10.02;;;0.20;99.90;;;;;;5011495;28;20494;-67
2023/03/01 02:15:35;;;;;;;18.73;8.90;;;0.10;99.90;;;;;;5012102;28;20085;-67
2023/03/01 02:18:03;;;;;;;20.13;10.07;;;0.20;99.90;;;;;;4987550;28;20042;-67
2023/03/01 02:20:50;;;;;;;23.27;9.70;;;0.10;99.90;;;;;;5014074;28;20045;-66
2023/03/01 02:23:16;;;;;;;;;;;0.10;99.90;;;;;;4994276;28;20061;-66
2023/03/01 02:25:55;;;;;;;47.20;11.43;;;0.10;99.90;;;;;;4998685;28;19927;-67
2023/03/01 02:28:21;;;;;;;31.38;12.07;;;0.20;99.90;;;;;;5012312;28;20057;-67
2023/03/01 02:33:35;;;;;;;33.22;9.90;;;0.20;99.90;;;;;;4991339;28;20053;-67
2023/03/01 02:36:09;;;;;;;43.15;9.90;;;0.20;99.90;;;;;;5015722;28;20042;-67
2023/03/01 02:38:34;;;;;;;30.40;10.80;;;0.10;99.90;;;;;;5012999;28;20495;-67
2023/03/01 02:41:01;;;;;;;46.00;10.60;;;0.10;99.90;;;;;;4986352;28;20137;-69
2023/03/01 02:43:30;;;;;;;48.83;10.07;;;0.20;99.90;;;;;;4990210;28;20077;-67
2023/03/01 02:46:01;;;;;;;28.80;10.57;;;0.10;99.90;;;;;;5009284;28;20052;-67
2023/03/01 02:48:30;;;;;;;24.42;10.18;;;0.10;99.90;;;;;;5013424;28;20037;-67
2023/03/01 02:51:11;;;;;;;22.25;9.38;;;0.10;99.90;;;;;;5001427;28;20393;-67
2023/03/01 02:54:16;;;;;;;26.38;10.63;;;0.10;99.90;;;;;;4979404;28;20141;-67
2023/03/01 02:56:44;;;;;;;29.58;10.70;;;0.00;99.90;;;;;;4974246;28;20068;-67
2023/03/01 02:59:10;;;;;;;31.85;10.85;;;0.00;99.90;;;;;;4990441;28;20038;-67
2023/03/01 03:01:38;;;;;;;23.40;10.80;;;0.00;99.90;;;;;;4996281;28;20041;-67
2023/03/01 03:04:16;;;;;;;24.92;11.48;;;0.00;99.90;;;;;;4990369;28;20446;-67
2023/03/01 03:06:44;;;;;;;21.50;10.95;;;-0.10;99.90;;;;;;4998875;28;20050;-67
2023/03/01 03:09:10;;;;;;;22.85;9.70;;;-0.10;99.90;;;;;;5008010;28;20080;-67
2023/03/01 03:11:36;;;;;;;24.05;10.35;;;-0.10;99.90;;;;;;4996612;28;20049;-67
2023/03/01 03:14:02;;;;;;;22.63;9.25;;;-0.10;99.90;;;;;;5003068;28;20045;-67
2023/03/01 03:16:29;;;;;;;21.73;9.80;;;-0.10;99.90;;;;;;5007041;28;20034;-67
2023/03/01 03:19:04;;;;;;;23.52;10.15;;;-0.20;99.90;;;;;;4980988;28;20549;-67
2023/03/01 03:21:31;;;;;;;17.38;8.90;;;-0.20;99.90;;;;;;4988682;28;20088;-67
2023/03/01 03:23:57;;;;;;;14.25;7.60;;;-0.20;99.90;;;;;;4994270;28;20598;-67
2023/03/01 03:26:23;;;;;;;18.25;8.38;;;-0.20;99.90;;;;;;4999229;28;20289;-67
2023/03/01 03:28:48;;;;;;;20.37;8.87;;;-0.10;99.90;;;;;;4986907;28;20601;-67
2023/03/01 03:31:14;;;;;;;14.43;7.43;;;-0.10;99.90;;;;;;5009048;28;20346;-67
2023/03/01 03:33:40;;;;;;;16.27;7.37;;;-0.10;99.90;;;;;;4989333;28;20038;-67
2023/03/01 03:36:05;;;;;;;17.33;8.03;;;-0.10;99.90;;;;;;4989409;28;20122;-67
2023/03/01 03:38:31;;;;;;;19.73;8.47;;;-0.10;99.90;;;;;;4993679;28;20033;-68
2023/03/01 03:41:03;;;;;;;16.13;7.60;;;-0.10;99.90;;;;;;4994002;28;20279;-68
2023/03/01 03:43:32;;;;;;;14.93;7.18;;;-0.10;99.90;;;;;;5013200;28;20131;-68
2023/03/01 03:45:57;;;;;;;12.98;6.97;;;-0.10;99.90;;;;;;4979560;28;20069;-67
2023/03/01 03:48:24;;;;;;;15.73;6.90;;;-0.10;99.90;;;;;;4972370;28;20123;-68
2023/03/01 03:50:51;;;;;;;;;;;-0.10;99.90;;;;;;5007902;28;20335;-68
2023/03/01 03:53:17;;;;;;;17.10;6.53;;;-0.10;99.90;;;;;;5030646;28;20673;-68
2023/03/01 03:55:44;;;;;;;15.43;6.30;;;-0.20;99.90;;;;;;4996654;28;20046;-68
2023/03/01 03:58:10;;;;;;;;;;;-0.20;99.90;;;;;;5007090;28;20456;-68
2023/03/01 04:00:41;;;;;;;13.48;5.78;;;-0.30;99.90;;;;;;5003785;28;20276;-68
2023/03/01 04:03:07;;;;;;;17.63;6.75;;;-0.30;99.90;;;;;;4988426;28;20046;-68
2023/03/01 04:05:33;;;;;;;18.48;6.25;;;-0.40;99.90;;;;;;5051058;22;20039;-69
2023/03/01 04:08:02;;;;;;;27.77;6.53;;;-0.40;99.90;;;;;;5041903;28;20427;-70
2023/03/01 04:10:30;;;;;;;27.10;7.50;;;-0.40;99.90;;;;;;5056507;28;20267;-70
2023/03/01 04:12:56;;;;;;;40.28;6.57;;;-0.50;99.90;;;;;;5061037;28;20045;-69
2023/03/01 04:15:23;;;;;;;32.72;7.00;;;-0.60;99.90;;;;;;5059551;28;20103;-69
2023/03/01 04:17:51;;;;;;;29.98;6.75;;;-0.60;99.90;;;;;;5054419;28;20056;-70
2023/03/01 04:20:26;;;;;;;32.35;6.50;;;-0.60;99.90;;;;;;5060052;28;20124;-70
2023/03/01 04:23:15;;;;;;;21.15;6.20;;;-0.60;99.90;;;;;;5061723;28;20087;-69
2023/03/01 04:25:58;;;;;;;28.05;6.82;;;-0.60;99.90;;;;;;5062711;28;20051;-71
2023/03/01 04:28:28;;;;;;;22.13;7.15;;;-0.60;99.90;;;;;;5056299;28;20692;-69
2023/03/01 04:30:55;;;;;;;27.63;7.40;;;-0.70;99.90;;;;;;5062451;28;20101;-70
2023/03/01 04:33:21;;;;;;;25.05;7.55;;;-0.70;99.90;;;;;;5054065;28;20049;-69
2023/03/01 04:35:49;;;;;;;25.92;6.28;;;-0.70;99.90;;;;;;5058583;28;20942;-70
2023/03/01 04:38:16;;;;;;;19.13;7.22;;;-0.70;99.90;;;;;;5045194;28;20051;-70
2023/03/01 04:40:42;;;;;;;13.73;6.43;;;-0.70;99.90;;;;;;5053577;28;20037;-71
2023/03/01 04:43:09;;;;;;;21.50;6.38;;;-0.70;99.90;;;;;;5033954;28;20105;-70
2023/03/01 04:45:34;;;;;;;17.67;6.40;;;-0.70;99.90;;;;;;5057899;28;20135;-70
2023/03/01 04:48:00;;;;;;;22.73;7.67;;;-0.80;99.90;;;;;;5061344;28;20131;-70
2023/03/01 04:50:26;;;;;;;19.57;5.83;;;-0.80;99.90;;;;;;5060024;28;20131;-71
2023/03/01 04:52:52;;;;;;;21.90;6.73;;;-0.80;99.90;;;;;;5055650;28;20052;-70
2023/03/01 04:55:18;;;;;;;22.27;5.82;;;-0.80;99.90;;;;;;5050598;28;20462;-70
2023/03/01 04:57:44;;;;;;;33.30;6.23;;;-0.90;99.90;;;;;;5061673;28;20049;-70
2023/03/01 05:00:19;;;;;;;15.23;5.10;;;-0.90;99.90;;;;;;5059385;28;20285;-70
2023/03/01 05:02:56;;;;;;;19.40;5.63;;;-1.00;99.90;;;;;;5056883;28;20048;-71
2023/03/01 05:05:26;;;;;;;15.00;5.30;;;-0.90;99.90;;;;;;5058149;28;20040;-73
2023/03/01 05:07:56;;;;;;;9.65;4.68;;;-1.00;99.90;;;;;;5062079;28;20072;-70
2023/03/01 05:10:23;;;;;;;12.18;4.82;;;-1.00;99.90;;;;;;5060729;28;20045;-71
2023/03/01 05:12:49;;;;;;;;;;;-1.00;99.90;;;;;;5035535;28;20049;-70
2023/03/01 05:15:14;;;;;;;18.85;4.80;;;-1.10;99.90;;;;;;5056505;28;19916;-71
2023/03/01 05:17:40;;;;;;;10.83;4.47;;;-1.00;99.90;;;;;;5057636;28;20032;-71
2023/03/01 05:20:09;;;;;;;13.07;5.00;;;-1.10;99.90;;;;;;5050640;28;20048;-71
2023/03/01 05:22:36;;;;;;;10.93;5.38;;;-1.10;99.90;;;;;;5060507;28;20036;-71
2023/03/01 05:25:02;;;;;;;9.20;4.47;;;-1.10;99.90;;;;;;5061292;28;20051;-70
2023/03/01 05:27:29;;;;;;;;;;;-1.20;99.90;;;;;;5054336;28;20557;-70
2023/03/01 05:29:55;;;;;;;7.20;4.15;;;-1.20;99.90;;;;;;5058889;28;20006;-71
2023/03/01 05:32:21;;;;;;;8.68;4.18;;;-1.20;99.90;;;;;;5059100;28;20053;-70
2023/03/01 05:34:47;;;;;;;10.13;4.90;;;-1.20;99.90;;;;;;5036827;28;20161;-72
2023/03/01 05:37:13;;;;;;;11.13;4.13;;;-1.20;99.90;;;;;;5056339;28;20043;-71
2023/03/01 05:39:39;;;;;;;8.52;4.57;;;-1.30;99.90;;;;;;5058695;28;20531;-71
2023/03/01 05:42:05;;;;;;;7.97;4.03;;;-1.30;99.90;;;;;;5047653;28;20455;-71
2023/03/01 05:44:30;;;;;;;7.63;4.57;;;-1.30;99.90;;;;;;5056661;28;20162;-71
2023/03/01 05:46:56;;;;;;;8.07;4.27;;;-1.30;99.90;;;;;;5054895;28;20220;-71
2023/03/01 05:49:23;;;;;;;9.43;4.83;;;-1.30;99.90;;;;;;5055534;28;20040;-71
2023/03/01 05:51:50;;;;;;;8.18;4.75;;;-1.30;99.90;;;;;;5059754;28;20458;-71
2023/03/01 05:54:16;;;;;;;9.88;4.55;;;-1.30;99.90;;;;;;5062218;28;20044;-70
2023/03/01 05:56:42;;;;;;;8.60;4.27;;;-1.30;99.90;;;;;;5051076;28;20060;-70
2023/03/01 05:59:08;;;;;;;10.15;4.07;;;-1.30;99.90;;;;;;5059876;28;20071;-70
2023/03/01 06:01:34;;;;;;;18.03;3.77;;;-1.30;99.90;;;;;;5061374;28;20562;-71
2023/03/01 06:04:00;;;;;;;;;;;-1.30;99.90;;;;;;5059942;28;20052;-70
2023/03/01 06:06:26;;;;;;;8.75;4.65;;;-1.30;99.90;;;;;;5033549;28;20387;-71
2023/03/01 06:08:53;;;;;;;8.50;5.07;;;-1.30;99.90;;;;;;5051584;28;20048;-71
2023/03/01 06:11:18;;;;;;;;;;;-1.30;99.90;;;;;;5054862;28;20404;-71
2023/03/01 06:13:44;;;;;;;9.18;4.55;;;-1.30;99.90;;;;;;5052329;28;19917;-71
2023/03/01 06:16:10;;;;;;;8.00;4.68;;;-1.30;99.90;;;;;;5061222;28;20492;-71
2023/03/01 06:18:37;;;;;;;8.33;4.80;;;-1.30;99.90;;;;;;5059028;28;20163;-71
2023/03/01 06:21:03;;;;;;;;;;;-1.30;99.90;;;;;;5050657;28;20052;-71
2023/03/01 06:23:28;;;;;;;9.45;4.68;;;-1.30;99.90;;;;;;5052880;28;19989;-71
2023/03/01 06:25:54;;;;;;;9.20;5.23;;;-1.40;99.90;;;;;;5062384;28;20072;-71
2023/03/01 06:28:20;;;;;;;9.37;5.10;;;-1.40;99.90;;;;;;5058223;28;20045;-71
2023/03/01 06:30:46;;;;;;;9.02;5.05;;;-1.40;99.90;;;;;;5057111;28;20068;-71
2023/03/01 06:33:11;;;;;;;9.37;4.83;;;-1.40;99.90;;;;;;5058782;28;20088;-71
2023/03/01 06:35:37;;;;;;;8.07;3.87;;;-1.40;99.90;;;;;;5058288;28;20128;-71
2023/03/01 06:38:05;;;;;;;8.87;4.47;;;-1.50;99.90;;;;;;5061643;28;20052;-72
2023/03/01 06:40:31;;;;;;;12.00;6.22;;;-1.40;99.90;;;;;;5056919;28;20353;-72
2023/03/01 06:42:58;;;;;;;12.88;6.90;;;-1.50;99.90;;;;;;5056633;28;20417;-71
2023/03/01 06:45:24;;;;;;;8.30;4.72;;;-1.40;99.90;;;;;;5052348;28;20044;-72
2023/03/01 06:47:50;;;;;;;8.88;4.75;;;-1.50;99.90;;;;;;5044886;28;20059;-74
2023/03/01 06:50:16;;;;;;;9.23;5.13;;;-1.50;99.90;;;;;;5050008;28;20388;-76
2023/03/01 06:52:44;;;;;;;9.98;4.72;;;-1.50;99.90;;;;;;5057709;28;20687;-72
2023/03/01 06:55:10;;;;;;;9.13;5.32;;;-1.50;99.90;;;;;;5039344;28;20048;-75
2023/03/01 06:57:36;;;;;;;8.40;4.88;;;-1.50;99.90;;;;;;5055812;28;20676;-72
2023/03/01 07:00:05;;;;;;;8.73;4.77;;;-1.50;99.90;;;;;;5054898;28;20227;-72
2023/03/01 07:02:31;;;;;;;9.85;4.78;;;-1.50;99.90;;;;;;5047554;28;20048;-71
2023/03/01 07:04:57;;;;;;;9.17;4.93;;;-1.50;99.90;;;;;;5057892;28;20040;-72
2023/03/01 07:07:22;;;;;;;8.63;4.57;;;-1.50;99.90;;;;;;5058246;28;20123;-72
2023/03/01 07:09:49;;;;;;;8.47;4.37;;;-1.40;99.90;;;;;;5054763;28;20530;-71
2023/03/01 07:12:15;;;;;;;;;;;-1.40;99.90;;;;;;5051723;28;20071;-71
2023/03/01 07:14:40;;;;;;;10.00;4.63;;;-1.40;99.90;;;;;;5061757;28;19928;-71
2023/03/01 07:17:06;;;;;;;10.37;5.23;;;-1.40;99.90;;;;;;5059192;28;20036;-71
2023/03/01 07:19:32;;;;;;;8.53;5.47;;;-1.30;99.90;;;;;;5057896;28;20032;-71
2023/03/01 07:21:57;;;;;;;10.37;5.73;;;-1.30;99.90;;;;;;5059210;28;20044;-71
2023/03/01 07:24:23;;;;;;;11.47;5.37;;;-1.30;99.90;;;;;;5057486;28;20119;-71
2023/03/01 07:26:50;;;;;;;11.67;5.50;;;-1.20;99.90;;;;;;5056784;28;20491;-75
2023/03/01 07:29:17;;;;;;;11.27;5.80;;;-1.10;99.90;;;;;;5033697;28;20045;-72
2023/03/01 07:31:42;;;;;;;;;;;-1.10;99.90;;;;;;5077598;28;20369;-71
2023/03/01 07:34:08;;;;;;;10.48;5.05;;;-1.00;99.90;;;;;;5063668;28;19923;-76
2023/03/01 07:36:33;;;;;;;10.27;5.57;;;-1.00;99.90;;;;;;5061273;28;20028;-71
2023/03/01 07:39:02;;;;;;;11.70;6.30;;;-0.90;99.90;;;;;;5058794;28;20183;-72
2023/03/01 07:41:27;;;;;;;12.48;6.05;;;-0.90;99.90;;;;;;5052787;28;20049;-72
2023/03/01 07:43:53;;;;;;;15.70;6.40;;;-0.80;99.90;;;;;;5056571;28;20396;-71
2023/03/01 07:46:19;;;;;;;14.47;6.73;;;-0.70;99.90;;;;;;5056710;28;20041;-72
2023/03/01 07:48:45;;;;;;;13.67;7.50;;;-0.60;99.90;;;;;;5056439;28;20389;-71
2023/03/01 07:51:10;;;;;;;13.87;7.13;;;-0.50;99.90;;;;;;5060650;28;20051;-72
2023/03/01 07:53:36;;;;;;;16.87;8.23;;;-0.50;99.90;;;;;;5058265;28;20054;-72
2023/03/01 07:56:06;;;;;;;15.63;7.00;;;-0.40;99.90;;;;;;5067870;28;20094;-71
2023/03/01 07:58:33;;;;;;;15.70;7.38;;;-0.30;99.90;;;;;;5059790;28;20040;-71
2023/03/01 08:01:05;;;;;;;16.42;8.25;;;-0.20;99.90;;;;;;5064005;28;20074;-71
2023/03/01 08:03:31;;;;;;;16.20;8.05;;;-0.10;99.90;;;;;;5053158;28;20056;-72
2023/03/01 08:05:59;;;;;;;17.77;7.95;;;0.00;99.90;;;;;;5063176;28;20044;-72
2023/03/01 08:08:25;;;;;;;15.82;8.43;;;0.10;99.90;;;;;;5055545;28;20052;-72
2023/03/01 08:10:51;;;;;;;19.50;9.27;;;0.20;99.90;;;;;;5056972;28;20153;-71
2023/03/01 08:13:22;;;;;;;16.93;9.30;;;0.30;99.90;;;;;;5057590;28;20518;-72
2023/03/01 08:15:51;;;;;;;19.67;8.82;;;0.40;99.90;;;;;;5050143;28;20036;-72
2023/03/01 08:18:17;;;;;;;23.48;10.68;;;0.60;99.90;;;;;;5054345;28;20052;-71
2023/03/01 08:20:43;;;;;;;27.27;10.15;;;0.70;99.90;;;;;;5052037;28;20036;-71
2023/03/01 08:23:08;;;;;;;23.80;10.63;;;0.80;99.90;;;;;;5046757;28;20344;-72
2023/03/01 08:25:34;;;;;;;24.27;11.20;;;0.90;99.90;;;;;;5054007;28;20452;-72
2023/03/01 08:28:00;;;;;;;22.67;11.20;;;1.00;99.90;;;;;;5054078;28;20044;-72
2023/03/01 08:30:25;;;;;;;22.13;10.80;;;1.10;99.90;;;;;;5052231;28;20049;-71
2023/03/01 08:32:51;;;;;;;26.23;11.17;;;1.20;99.90;;;;;;5049080;28;20126;-72
2023/03/01 08:35:17;;;;;;;22.77;10.90;;;1.30;99.90;;;;;;5054743;28;20285;-72
2023/03/01 08:37:43;;;;;;;28.35;12.45;;;1.40;99.90;;;;;;5054794;28;20040;-72
2023/03/01 08:40:09;;;;;;;22.97;11.17;;;1.50;99.90;;;;;;5051560;28;20044;-72
2023/03/01 08:42:36;;;;;;;29.70;12.50;;;1.60;99.90;;;;;;5053986;28;20045;-71
2023/03/01 08:45:03;;;;;;;24.92;12.13;;;1.70;99.90;;;;;;5047683;28;20369;-71
2023/03/01 08:47:29;;;;;;;27.58;12.93;;;1.70;99.90;;;;;;5056063;28;20119;-71
2023/03/01 08:49:54;;;;;;;28.83;12.93;;;1.80;99.90;;;;;;5039143;28;20179;-71
2023/03/01 08:52:20;;;;;;;24.97;11.90;;;1.90;99.90;;;;;;5049790;28;20090;-72
2023/03/01 08:54:49;;;;;;;27.17;11.93;;;2.00;99.90;;;;;;5035097;28;20280;-72
2023/03/01 08:57:15;;;;;;;27.83;13.10;;;2.10;99.90;;;;;;5050582;28;20212;-72
2023/03/01 08:59:41;;;;;;;29.93;13.97;;;2.10;99.90;;;;;;5050802;28;20385;-71
2023/03/01 09:02:12;;;;;;;23.60;12.00;;;2.20;99.90;;;;;;5051064;28;20500;-71
2023/03/01 09:04:38;;;;;;;29.65;13.68;;;2.40;99.90;;;;;;5044391;28;20044;-72
2023/03/01 09:07:04;;;;;;;26.43;13.23;;;2.50;99.90;;;;;;5041537;28;20052;-71
2023/03/01 09:09:29;;;;;;;25.87;12.10;;;2.50;99.90;;;;;;5048527;28;20067;-71
2023/03/01 09:11:55;;;;;;;29.13;12.63;;;2.60;99.90;;;;;;5048373;28;20045;-71
2023/03/01 09:14:21;;;;;;;24.97;12.90;;;2.70;99.90;;;;;;5049587;28;20052;-71
2023/03/01 09:16:46;;;;;;;31.70;13.67;;;2.80;99.90;;;;;;5044067;28;20059;-72
2023/03/01 09:19:13;;;;;;;29.63;14.00;;;2.90;99.90;;;;;;5044307;28;20091;-71
2023/03/01 09:21:39;;;;;;;25.98;12.93;;;3.00;99.90;;;;;;5047827;28;20053;-72
2023/03/01 09:24:05;;;;;;;24.93;12.27;;;3.10;99.90;;;;;;5048120;28;20119;-71
2023/03/01 09:26:31;;;;;;;28.50;13.07;;;3.20;99.90;;;;;;5051896;28;20070;-72
2023/03/01 09:28:57;;;;;;;28.03;13.30;;;3.30;99.90;;;;;;5047417;28;20052;-71
2023/03/01 09:31:24;;;;;;;25.60;13.52;;;3.30;99.90;;;;;;5046414;28;20044;-71
2023/03/01 09:33:52;;;;;;;26.02;12.52;;;3.40;99.90;;;;;;5051493;28;20098;-71
2023/03/01 09:36:20;;;;;;;24.45;12.27;;;3.50;99.90;;;;;;5049675;28;20043;-73
2023/03/01 09:38:47;;;;;;;22.33;11.23;;;3.60;99.90;;;;;;5050233;28;20047;-71
2023/03/01 09:41:40;;;;;;;29.77;12.75;;;3.70;99.90;;;;;;5056262;28;20072;-71
2023/03/01 09:44:22;;;;;;;23.42;11.45;;;3.80;99.90;;;;;;5054173;28;20064;-71
2023/03/01 09:46:48;;;;;;;25.27;11.15;;;3.90;99.90;;;;;;5033452;28;20430;-71
2023/03/01 09:49:21;;;;;;;19.40;9.32;;;4.00;99.90;;;;;;5054390;28;20040;-71
2023/03/01 09:52:04;;;;;;;21.45;9.23;;;4.20;99.90;;;;;;5048395;28;20188;-71
2023/03/01 09:54:30;;;;;;;16.35;8.27;;;4.30;99.90;;;;;;5052690;28;20326;-71
2023/03/01 09:57:01;;;;;;;13.93;7.72;;;4.40;99.90;;;;;;5051611;28;20094;-72
2023/03/01 09:59:47;;;;;;;15.32;8.68;;;4.50;99.90;;;;;;5048982;28;20526;-71
2023/03/01 10:02:37;;;;;;;17.42;8.00;;;4.60;99.90;;;;;;5052787;28;20040;-71
2023/03/01 10:05:30;;;;;;;12.68;7.15;;;4.70;99.90;;;;;;5044352;28;20424;-71
2023/03/01 10:08:33;;;;;;;14.23;6.78;;;4.90;99.90;;;;;;5048149;28;20746;-72
2023/03/01 10:10:59;;;;;;;12.95;6.90;;;5.10;99.90;;;;;;5040309;28;20074;-71
2023/03/01 10:13:43;;;;;;;15.27;7.80;;;5.20;99.90;;;;;;5043338;28;20049;-71
2023/03/01 10:16:14;;;;;;;16.60;8.70;;;5.40;99.90;;;;;;5044148;28;20045;-71
2023/03/01 10:18:41;;;;;;;15.40;7.30;;;5.50;99.90;;;;;;5050425;28;20626;-71
2023/03/01 10:21:12;;;;;;;;;;;5.60;99.90;;;;;;5051590;28;20043;-71
2023/03/01 10:23:38;;;;;;;13.95;7.05;;;5.70;99.90;;;;;;5043957;28;20075;-71
2023/03/01 10:26:20;;;;;;;12.37;6.70;;;5.90;99.90;;;;;;5048421;28;20071;-71
2023/03/01 10:29:02;;;;;;;14.52;7.00;;;6.00;99.90;;;;;;5041918;28;20037;-71
2023/03/01 10:31:49;;;;;;;12.80;6.43;;;6.20;99.90;;;;;;5043992;28;20045;-71
2023/03/01 10:34:20;;;;;;;12.93;7.35;;;6.30;99.90;;;;;;5045087;28;20044;-71
2023/03/01 10:36:52;;;;;;;14.13;6.57;;;6.40;99.90;;;;;;5049796;28;20047;-71
2023/03/01 10:39:23;;;;;;;16.50;6.95;;;6.50;99.90;;;;;;5048515;28;20090;-71
2023/03/01 10:42:01;;;;;;;13.68;7.22;;;6.60;99.90;;;;;;5072354;28;20083;-71
2023/03/01 10:44:46;;;;;;;12.82;7.15;;;6.70;99.90;;;;;;5046386;28;20268;-71
2023/03/01 10:47:21;;;;;;;11.63;7.00;;;6.80;99.90;;;;;;5042975;28;20071;-71
2023/03/01 10:49:54;;;;;;;14.73;8.57;;;7.00;99.90;;;;;;5042324;28;20366;-71
2023/03/01 10:52:23;;;;;;;14.07;7.93;;;7.10;99.90;;;;;;5047009;28;20044;-71
2023/03/01 10:55:12;;;;;;;15.60;8.00;;;7.20;99.90;;;;;;5053122;28;20084;-72
2023/03/01 10:57:40;;;;;;;14.43;8.00;;;7.30;99.90;;;;;;5052663;28;20033;-71
2023/03/01 11:00:22;;;;;;;17.98;7.40;;;7.40;99.90;;;;;;5046805;28;20397;-71
2023/03/01 11:03:12;;;;;;;14.55;7.47;;;7.50;99.90;;;;;;5044397;28;20316;-71
2023/03/01 11:05:54;;;;;;;15.57;7.20;;;7.50;99.90;;;;;;4996523;28;20088;-71
2023/03/01 11:08:32;;;;;;;13.23;7.38;;;7.60;99.90;;;;;;5053415;28;20450;-71
2023/03/01 11:11:24;;;;;;;12.30;7.05;;;7.70;99.90;;;;;;5050859;28;20206;-71
2023/03/01 11:14:16;;;;;;;11.30;6.90;;;7.80;99.90;;;;;;5048306;28;20079;-71
2023/03/01 11:16:45;;;;;;;14.15;8.10;;;7.90;99.90;;;;;;5064426;28;20040;-71
2023/03/01 11:19:10;;;;;;;13.38;7.68;;;8.00;99.90;;;;;;5051825;28;20790;-71
2023/03/01 11:21:51;;;;;;;14.03;6.87;;;8.10;99.90;;;;;;5066632;28;20044;-71
2023/03/01 11:24:18;;;;;;;10.98;6.70;;;8.20;99.90;;;;;;5045484;28;20044;-72
2023/03/01 11:26:51;;;;;;;13.98;7.93;;;8.20;99.90;;;;;;5053006;28;20068;-71
2023/03/01 11:29:42;;;;;;;15.43;7.38;;;8.30;99.90;;;;;;5043709;28;20052;-71
2023/03/01 11:32:11;;;;;;;11.15;6.95;;;8.40;99.90;;;;;;5040716;28;20424;-71
2023/03/01 11:34:55;;;;;;;15.40;7.90;;;8.40;99.90;;;;;;5047146;28;20128;-72
2023/03/01 11:37:32;;;;;;;14.23;7.82;;;8.50;99.90;;;;;;5045069;28;20442;-71
2023/03/01 11:40:21;;;;;;;13.15;7.47;;;8.50;99.90;;;;;;5045488;28;20049;-71
2023/03/01 11:43:23;;;;;;;12.52;7.03;;;8.60;99.90;;;;;;5052268;28;20102;-72
2023/03/01 11:46:00;;;;;;;15.05;7.95;;;8.70;99.90;;;;;;5043870;28;20037;-71
2023/03/01 11:48:42;;;;;;;11.60;7.15;;;8.80;99.90;;;;;;5040866;28;20429;-71
2023/03/01 11:51:29;;;;;;;13.15;7.07;;;8.90;99.90;;;;;;5045926;28;20044;-71
2023/03/01 11:54:15;;;;;;;12.30;6.88;;;8.90;99.90;;;;;;5050143;28;20412;-71
2023/03/01 11:57:08;;;;;;;13.65;7.65;;;8.90;99.90;;;;;;5049656;28;20048;-71
2023/03/01 11:59:46;;;;;;;12.23;6.95;;;8.90;99.90;;;;;;5045895;28;20037;-72
2023/03/01 12:02:56;;;;;;;12.32;7.25;;;9.00;99.90;;;;;;5044279;28;20105;-72
2023/03/01 12:06:03;;;;;;;14.32;7.65;;;9.10;99.90;;;;;;5037559;28;20059;-71
2023/03/01 12:08:35;;;;;;;16.42;8.07;;;9.20;99.90;;;;;;5021475;28;20056;-72
2023/03/01 12:11:08;;;;;;;12.45;7.75;;;9.20;99.90;;;;;;5047449;28;20080;-71
2023/03/01 12:13:43;;;;;;;12.48;7.38;;;9.30;99.90;;;;;;5046492;28;20044;-71
2023/03/01 12:16:11;;;;;;;14.93;7.60;;;9.40;99.90;;;;;;5045639;28;20076;-72
2023/03/01 12:19:00;;;;;;;12.70;7.13;;;9.50;99.90;;;;;;5053481;28;20040;-71
2023/03/01 12:21:55;;;;;;;16.95;7.93;;;9.60;99.90;;;;;;5045809;28;20293;-71
2023/03/01 12:24:43;;;;;;;13.80;7.72;;;9.70;99.90;;;;;;5043218;28;20428;-71
2023/03/01 12:27:31;;;;;;;17.17;8.52;;;9.90;99.90;;;;;;5050943;28;20137;-71
2023/03/01 12:30:21;;;;;;;13.65;7.63;;;10.00;99.90;;;;;;5042354;28;20043;-71
2023/03/01 12:32:53;;;;;;;16.65;8.07;;;10.00;99.90;;;;;;5046587;28;20099;-71
2023/03/01 12:35:53;;;;;;;16.08;7.60;;;10.00;99.90;;;;;;5063581;28;20048;-71
2023/03/01 12:38:39;;;;;;;13.55;8.02;;;10.10;99.90;;;;;;5045631;28;20048;-72
2023/03/01 12:41:30;;;;;;;16.52;9.00;;;10.00;99.90;;;;;;5051311;28;20051;-71
2023/03/01 12:44:14;;;;;;;13.95;8.00;;;10.20;99.90;;;;;;5048377;28;20482;-72
2023/03/01 12:47:05;;;;;;;15.15;8.02;;;10.20;99.90;;;;;;5053483;28;20103;-72
2023/03/01 12:49:53;;;;;;;16.27;8.45;;;10.30;99.90;;;;;;5048564;28;20561;-72
2023/03/01 12:52:40;;;;;;;14.93;7.40;;;10.40;99.90;;;;;;5067344;28;20338;-72
2023/03/01 12:55:29;;;;;;;16.92;7.82;;;10.50;99.90;;;;;;5050764;28;20393;-72
2023/03/01 12:58:09;;;;;;;10.70;6.70;;;10.50;99.90;;;;;;5044870;28;20344;-72
2023/03/01 13:00:53;;;;;;;13.05;7.13;;;10.50;99.90;;;;;;5051728;28;20033;-71
2023/03/01 13:03:48;;;;;;;15.50;6.97;;;10.50;99.90;;;;;;5047674;28;20060;-71
2023/03/01 13:06:25;;;;;;;16.13;7.70;;;10.60;99.90;;;;;;5047294;28;20049;-72
2023/03/01 13:09:38;;;;;;;14.98;7.53;;;10.60;99.90;;;;;;5050254;28;20527;-72